Time;durP1;ratioP1;P1;durP2;ratioP2;P2;SDS_P1;SDS_P2;PMS_P1;PMS_P2;Temp;Humidity;BMP_temperature;BMP_pressure;BME280_temperature;BME280_humidity;BME280_pressure;Samples;Min_cycle;Max_cycle;Signal;HPM_P1;HPM_P2
2022/03/14 00:08:16;;;;;;;4.53;3.07;;;;;;;;;;20893186;28;20214;-66
2022/03/14 00:18:18;;;;;;;5.23;3.30;;;;;;;;;;20893128;28;20217;-65
2022/03/14 00:28:20;;;;;;;4.70;3.00;;;11.00;99.90;;;;;;20875889;28;20275;-65
2022/03/14 00:38:25;;;;;;;3.87;2.13;;;;;;;;;;20891083;28;20778;-65
2022/03/14 00:48:26;;;;;;;8.23;1.90;;;10.90;99.90;;;;;;20890983;28;20210;-66
2022/03/14 00:58:30;;;;;;;5.27;2.30;;;;;;;;;;20888389;28;20252;-66
2022/03/14 01:08:34;;;;;;;1.50;0.70;;;;;;;;;;20895527;23;20597;-84
2022/03/14 01:18:36;;;;;;;5.40;1.60;;;;;;;;;;20887427;28;20237;-83
2022/03/14 01:28:37;;;;;;;0.60;0.47;;;;;;;;;;20929288;28;20580;-83
2022/03/14 01:38:39;;;;;;;0.20;0.10;;;;;;;;;;20874699;28;20230;-85
2022/03/14 01:48:42;;;;;;;0.20;0.13;;;;;;;;;;20890764;28;20749;-82
2022/03/14 01:58:48;;;;;;;1.03;0.63;;;;;;;;;;20905445;28;20289;-83
2022/03/14 02:08:49;;;;;;;0.27;0.17;;;;;;;;;;20893262;28;20714;-83
2022/03/14 02:18:51;;;;;;;0.10;0.10;;;;;;;;;;20905938;28;20280;-82
2022/03/14 02:28:53;;;;;;;1.37;0.13;;;;;;;;;;20870400;28;20757;-81
2022/03/14 02:38:55;;;;;;;0.30;0.23;;;;;;;;;;20903035;28;20238;-81
2022/03/14 02:48:57;;;;;;;0.10;0.10;;;;;;;;;;20853645;28;20218;-81
2022/03/14 02:58:59;;;;;;;0.20;0.20;;;;;;;;;;20919210;28;20221;-82
2022/03/14 03:09:03;;;;;;;0.03;0.03;;;;;;;;;;20851558;28;20226;-82
2022/03/14 03:19:06;;;;;;;0.30;0.10;;;;;;;;;;20849529;28;20260;-83
2022/03/14 03:29:10;;;;;;;0.10;0.10;;;;;;;;;;20866569;28;20218;-82
2022/03/14 03:39:14;;;;;;;0.60;0.40;;;;;;;;;;20913966;28;20591;-82
2022/03/14 03:49:16;;;;;;;0.20;0.10;;;;;;;;;;20896700;28;20230;-82
2022/03/14 03:59:20;;;;;;;0.20;0.20;;;;;;;;;;20879967;28;20226;-82
2022/03/14 04:09:22;;;;;;;0.30;0.20;;;;;;;;;;20879535;28;20222;-80
2022/03/14 04:19:24;;;;;;;0.20;0.20;;;;;;;;;;20862491;28;20270;-82
2022/03/14 04:29:25;;;;;;;0.17;0.17;;;;;;;;;;20877264;28;20202;-80
2022/03/14 04:39:27;;;;;;;0.10;0.10;;;;;;;;;;20877215;28;20234;-79
2022/03/14 04:49:29;;;;;;;0.47;0.30;;;;;;;;;;20876209;28;20271;-81
2022/03/14 04:59:30;;;;;;;0.13;0.10;;;;;;;;;;20892563;28;20928;-80
2022/03/14 05:09:32;;;;;;;0.63;0.30;;;;;;;;;;20875490;28;20225;-79
2022/03/14 05:19:34;;;;;;;0.60;0.30;;;;;;;;;;20894389;28;20213;-79
2022/03/14 05:29:37;;;;;;;0.53;0.30;;;;;;;;;;20875295;28;20711;-80
2022/03/14 05:39:39;;;;;;;0.50;0.20;;;;;;;;;;20907829;28;20229;-80
2022/03/14 05:49:41;;;;;;;0.23;0.20;;;;;;;;;;20903852;28;20248;-80
2022/03/14 05:59:42;;;;;;;0.30;0.20;;;;;;;;;;20906943;28;20229;-83
2022/03/14 06:09:44;;;;;;;0.93;0.50;;;;;;;;;;20890351;28;20291;-82
2022/03/14 06:19:46;;;;;;;2.70;0.67;;;9.10;99.90;;;;;;20889931;28;20233;-82
2022/03/14 06:29:48;;;;;;;1.60;0.50;;;;;;;;;;20872827;28;20214;-82
2022/03/14 06:39:50;;;;;;;1.60;0.70;;;;;;;;;;20887957;28;20221;-83
2022/03/14 06:49:51;;;;;;;0.97;0.30;;;;;;;;;;20906448;28;20226;-82
2022/03/14 06:59:53;;;;;;;0.97;0.50;;;;;;;;;;20880281;28;20229;-81
2022/03/14 07:09:55;;;;;;;1.00;0.50;;;;;;;;;;20920085;28;20611;-81
2022/03/14 07:19:57;;;;;;;0.67;0.53;;;;;;;;;;20823589;28;20308;-80
2022/03/14 07:29:58;;;;;;;0.63;0.43;;;;;;;;;;20785847;28;20215;-81
2022/03/14 07:40:00;;;;;;;1.03;0.47;;;;;;;;;;20819087;28;20263;-81
2022/03/14 07:50:02;;;;;;;0.47;0.40;;;;;;;;;;20865646;28;20205;-80
2022/03/14 08:00:08;;;;;;;5.63;1.20;;;9.70;99.90;;;;;;20849683;28;20233;-80
2022/03/14 08:10:17;;;;;;;0.30;0.20;;;;;;;;;;20896770;28;20434;-85
2022/03/14 08:20:22;;;;;;;1.10;0.40;;;;;;;;;;20825859;28;20253;-80
2022/03/14 08:30:25;;;;;;;1.27;0.60;;;;;;;;;;20925893;28;20209;-81
2022/03/14 08:40:27;;;;;;;1.43;0.30;;;;;;;;;;20982380;28;20209;-81
2022/03/14 08:50:29;;;;;;;0.30;0.30;;;;;;;;;;20923026;28;20214;-81
2022/03/14 09:00:31;;;;;;;0.30;0.30;;;11.60;99.90;;;;;;20870214;28;20620;-80
2022/03/14 09:10:36;;;;;;;0.50;0.20;;;;;;;;;;20893287;28;20292;-82
2022/03/14 09:20:39;;;;;;;2.87;0.40;;;;;;;;;;20860888;28;20214;-81
2022/03/14 09:30:43;;;;;;;1.03;0.20;;;;;;;;;;20894746;28;20225;-81
2022/03/14 09:40:46;;;;;;;1.17;0.43;;;;;;;;;;20885688;28;20295;-82
2022/03/14 09:50:48;;;;;;;0.67;0.20;;;;;;;;;;20916475;28;20283;-83
2022/03/14 10:00:51;;;;;;;1.33;0.40;;;;;;;;;;20875945;28;20695;-81
2022/03/14 10:10:53;;;;;;;0.63;0.30;;;;;;;;;;20889415;28;20226;-82
2022/03/14 10:20:58;;;;;;;0.70;0.30;;;;;;;;;;20885029;28;20226;-82
2022/03/14 10:31:01;;;;;;;0.80;0.40;;;;;;;;;;20879246;28;20636;-81
2022/03/14 10:41:12;;;;;;;0.37;0.20;;;;;;;;;;20888978;28;20254;-82
2022/03/14 10:51:15;;;;;;;0.20;0.20;;;;;;;;;;20886666;28;20703;-83
2022/03/14 11:01:16;;;;;;;1.20;0.23;;;;;;;;;;20886861;28;20279;-81
2022/03/14 11:11:21;;;;;;;0.23;0.20;;;;;;;;;;20852227;28;20237;-82
2022/03/14 11:21:24;;;;;;;0.80;0.10;;;;;;;;;;20845328;28;20210;-83
2022/03/14 11:31:26;;;;;;;0.90;0.20;;;;;;;;;;20885957;28;20229;-82
2022/03/14 11:41:28;;;;;;;0.57;0.27;;;;;;;;;;20866897;28;20271;-82
2022/03/14 11:51:41;;;;;;;0.37;0.23;;;;;;;;;;20860615;28;20242;-82
2022/03/14 12:01:50;;;;;;;1.80;0.20;;;;;;;;;;20838056;28;20226;-82
2022/03/14 12:11:52;;;;;;;0.63;0.30;;;;;;;;;;20904360;28;20767;-81
2022/03/14 12:21:54;;;;;;;1.67;0.30;;;;;;;;;;20897522;28;20202;-82
2022/03/14 12:32:33;;;;;;;0.23;0.20;;;12.50;99.90;;;;;;20855722;28;20226;-82
2022/03/14 12:42:46;;;;;;;0.63;0.43;;;;;;;;;;20863889;28;20231;-83
2022/03/14 12:53:00;;;;;;;0.83;0.23;;;;;;;;;;20893117;28;20695;-82
2022/03/14 13:03:02;;;;;;;0.10;0.10;;;;;;;;;;20876850;28;20217;-82
2022/03/14 13:13:09;;;;;;;0.30;0.30;;;;;;;;;;20877724;28;20237;-81
2022/03/14 13:23:15;;;;;;;1.23;0.40;;;;;;;;;;20909742;28;20209;-82
2022/03/14 13:33:24;;;;;;;0.27;0.20;;;;;;;;;;20949208;28;20710;-83
2022/03/14 13:43:27;;;;;;;0.70;0.40;;;;;;;;;;20944486;28;20209;-84
2022/03/14 13:53:44;;;;;;;0.30;0.30;;;;;;;;;;20880838;28;20635;-83
2022/03/14 14:04:23;;;;;;;0.97;0.37;;;;;;;;;;20826836;23;20291;-65
2022/03/14 14:14:26;;;;;;;1.23;0.53;;;14.60;99.90;;;;;;20879991;28;20587;-65
2022/03/14 14:24:29;;;;;;;0.50;0.30;;;;;;;;;;20901142;28;20221;-65
2022/03/14 14:34:30;;;;;;;0.33;0.30;;;;;;;;;;20875309;28;20293;-66
2022/03/14 14:44:32;;;;;;;1.60;0.70;;;;;;;;;;20945209;23;20226;-64
2022/03/14 14:54:34;;;;;;;2.60;1.50;;;;;;;;;;20856207;28;20279;-65
2022/03/14 15:04:36;;;;;;;0.87;0.47;;;;;;;;;;20897501;28;20271;-65
2022/03/14 15:14:38;;;;;;;1.27;0.77;;;;;;;;;;20896321;28;20267;-65
2022/03/14 15:24:40;;;;;;;1.83;0.67;;;;;;;;;;20896780;28;20206;-65
2022/03/14 15:34:41;;;;;;;1.13;0.67;;;;;;;;;;20891622;28;20217;-65
2022/03/14 15:44:44;;;;;;;1.77;0.80;;;;;;;;;;20873696;28;20230;-65
2022/03/14 15:54:46;;;;;;;5.13;2.93;;;;;;;;;;20888793;28;20279;-65
2022/03/14 16:04:48;;;;;;;0.93;0.60;;;;;;;;;;20871363;28;20640;-65
2022/03/14 16:14:50;;;;;;;2.87;0.80;;;;;;;;;;20847991;28;20271;-65
2022/03/14 16:24:52;;;;;;;1.77;0.53;;;;;;;;;;20839643;28;20245;-64
2022/03/14 16:34:54;;;;;;;1.10;0.80;;;;;;;;;;20835402;28;20226;-64
2022/03/14 16:44:56;;;;;;;1.63;0.50;;;;;;;;;;20853531;28;20684;-65
2022/03/14 16:54:58;;;;;;;0.50;0.40;;;;;;;;;;20887852;28;20222;-65
2022/03/14 17:05:00;;;;;;;2.00;0.50;;;;;;;;;;20858889;28;20268;-64
2022/03/14 17:15:02;;;;;;;2.37;0.80;;;;;;;;;;20922526;22;21019;-64
2022/03/14 17:25:05;;;;;;;1.83;0.70;;;;;;;;;;20885160;28;20643;-64
2022/03/14 17:35:09;;;;;;;1.07;0.50;;;;;;;;;;20928728;28;20720;-64
2022/03/14 17:45:12;;;;;;;1.40;0.90;;;;;;;;;;20907821;28;20221;-64
2022/03/14 17:55:13;;;;;;;1.37;0.70;;;;;;;;;;20942078;28;20286;-63
2022/03/14 18:05:16;;;;;;;2.07;0.83;;;;;;;;;;20954347;28;20221;-63
2022/03/14 18:15:19;;;;;;;1.90;1.20;;;12.10;99.90;;;;;;20928795;28;20267;-63
2022/03/14 18:25:21;;;;;;;2.30;1.23;;;12.30;99.90;;;;;;20874442;28;20665;-63
2022/03/14 18:35:25;;;;;;;2.40;1.20;;;;;;;;;;20872245;28;20905;-63
2022/03/14 18:45:27;;;;;;;4.50;2.40;;;;;;;;;;20907462;28;20263;-63
2022/03/14 18:55:28;;;;;;;2.47;1.20;;;;;;;;;;20910795;28;20754;-63
2022/03/14 19:05:32;;;;;;;2.43;1.20;;;11.50;99.90;;;;;;20901955;28;20258;-64
2022/03/14 19:15:34;;;;;;;3.13;0.80;;;;;;;;;;20953098;28;20213;-64
2022/03/14 19:25:36;;;;;;;4.20;2.30;;;;;;;;;;20887515;28;20275;-64
2022/03/14 19:35:40;;;;;;;5.00;1.20;;;;;;;;;;20931574;28;20767;-64
2022/03/14 19:45:43;;;;;;;1.70;1.03;;;;;;;;;;20894121;28;20209;-64
2022/03/14 19:55:45;;;;;;;1.60;1.00;;;;;;;;;;20906830;28;20221;-64
2022/03/14 20:05:47;;;;;;;3.97;2.40;;;;;;;;;;20884892;28;20680;-64
2022/03/14 20:15:55;;;;;;;6.30;4.37;;;;;;;;;;20909630;28;20700;-64
2022/03/14 20:25:58;;;;;;;1.30;0.70;;;10.70;99.90;;;;;;20929242;28;20206;-63
2022/03/14 20:36:00;;;;;;;1.93;0.90;;;;;;;;;;20873231;28;20221;-64
2022/03/14 20:46:04;;;;;;;0.70;0.53;;;;;;;;;;20917544;23;20232;-71
2022/03/14 20:56:07;;;;;;;2.33;1.03;;;;;;;;;;20887627;28;20238;-69
2022/03/14 21:06:09;;;;;;;1.57;1.03;;;;;;;;;;20831244;28;20221;-69
2022/03/14 21:16:11;;;;;;;2.50;1.20;;;;;;;;;;20830045;28;20223;-69
2022/03/14 21:26:14;;;;;;;1.33;0.80;;;;;;;;;;20821310;28;20214;-70
2022/03/14 21:36:17;;;;;;;1.10;0.50;;;;;;;;;;20819916;28;20717;-69
2022/03/14 21:46:22;;;;;;;1.20;0.60;;;;;;;;;;20820937;28;20268;-69
2022/03/14 21:56:23;;;;;;;1.57;0.80;;;;;;;;;;20819966;28;20223;-69
2022/03/14 22:06:26;;;;;;;1.97;1.10;;;;;;;;;;20819462;28;20759;-69
2022/03/14 22:16:30;;;;;;;0.67;0.50;;;;;;;;;;20820399;28;20830;-69
2022/03/14 22:26:32;;;;;;;1.30;0.77;;;;;;;;;;20824302;28;20272;-70
2022/03/14 22:36:36;;;;;;;1.10;0.63;;;;;;;;;;20850719;28;20276;-70
2022/03/14 22:46:37;;;;;;;2.40;1.50;;;;;;;;;;20850984;28;20693;-70
2022/03/14 22:56:40;;;;;;;1.80;0.93;;;9.60;99.90;;;;;;20848310;28;20227;-70
2022/03/14 23:06:43;;;;;;;1.93;0.90;;;;;;;;;;20830173;28;20237;-69
2022/03/14 23:16:48;;;;;;;1.50;0.73;;;;;;;;;;20831409;28;20219;-69
2022/03/14 23:26:51;;;;;;;1.20;0.60;;;9.00;99.90;;;;;;20846913;28;21008;-70
2022/03/14 23:36:53;;;;;;;1.53;0.93;;;;;;;;;;20829119;28;20230;-70
2022/03/14 23:46:56;;;;;;;1.97;1.00;;;;;;;;;;20829606;28;20214;-69
2022/03/14 23:56:58;;;;;;;2.60;1.43;;;;;;;;;;20828280;28;20586;-69
